Time;durP1;ratioP1;P1;durP2;ratioP2;P2;SDS_P1;SDS_P2;PMS_P1;PMS_P2;Temp;Humidity;BMP_temperature;BMP_pressure;BME280_temperature;BME280_humidity;BME280_pressure;Samples;Min_cycle;Max_cycle;Signal;HPM_P1;HPM_P2
2021/01/09 00:01:56;;;;;;;1.17;0.80;;;;;;;22.30;42.49;94544.56;5013000;28;20045;-74
2021/01/09 00:04:21;;;;;;;1.45;0.95;;;;;;;22.29;42.79;94546.56;5012953;28;20026;-74
2021/01/09 00:06:48;;;;;;;1.55;1.27;;;;;;;22.28;42.88;94539.63;5011608;28;20028;-74
2021/01/09 00:09:14;;;;;;;1.83;0.90;;;;;;;22.26;42.98;94547.59;5013148;28;20427;-74
2021/01/09 00:11:39;;;;;;;1.55;1.00;;;;;;;22.24;42.95;94541.94;5012861;28;20030;-74
2021/01/09 00:14:05;;;;;;;1.02;0.80;;;;;;;22.22;43.00;94568.16;5012702;28;20022;-73
2021/01/09 00:16:30;;;;;;;1.52;0.98;;;;;;;22.21;42.93;94583.75;5012771;28;20455;-74
2021/01/09 00:18:56;;;;;;;1.42;0.90;;;;;;;22.20;42.78;94574.09;5012762;28;20479;-74
2021/01/09 00:21:21;;;;;;;1.25;0.80;;;;;;;22.20;42.80;94568.63;5012714;28;20033;-74
2021/01/09 00:23:47;;;;;;;1.58;0.90;;;;;;;22.14;42.94;94567.97;5012962;28;20030;-74
2021/01/09 00:26:12;;;;;;;1.48;0.90;;;;;;;22.14;43.11;94562.53;5012463;28;20033;-74
2021/01/09 00:28:38;;;;;;;1.25;0.80;;;;;;;22.09;42.96;94560.63;5012383;28;20025;-74
2021/01/09 00:31:05;;;;;;;1.33;1.00;;;;;;;22.10;43.06;94556.63;5012425;28;20043;-73
2021/01/09 00:33:32;;;;;;;1.40;0.77;;;;;;;22.08;43.13;94561.84;5012358;28;20022;-74
2021/01/09 00:35:58;;;;;;;1.50;0.80;;;;;;;22.07;43.13;94571.25;5012688;28;20026;-74
2021/01/09 00:38:23;;;;;;;1.65;0.90;;;;;;;22.04;43.05;94568.81;5011303;28;20026;-74
2021/01/09 00:40:49;;;;;;;1.38;0.80;;;;;;;22.02;43.23;94576.75;5012188;28;20481;-73
2021/01/09 00:43:15;;;;;;;1.38;0.60;;;;;;;22.04;43.15;94579.69;5012176;28;20040;-73
2021/01/09 00:45:40;;;;;;;1.70;0.90;;;;;;;21.82;43.03;94541.84;5012294;28;20113;-74
2021/01/09 00:48:06;;;;;;;1.50;0.90;;;;;;;21.96;43.17;94557.78;5011320;28;20029;-74
2021/01/09 00:50:31;;;;;;;1.25;0.82;;;;;;;22.00;43.19;94563.69;5011961;28;20034;-73
2021/01/09 00:52:57;;;;;;;1.02;0.70;;;;;;;21.98;43.13;94566.16;5011430;28;20113;-74
2021/01/09 00:55:22;;;;;;;1.20;0.77;;;;;;;21.96;43.13;94574.09;5011618;28;20030;-73
2021/01/09 00:57:48;;;;;;;0.95;0.70;;;;;;;21.96;43.27;94574.09;5010845;28;20470;-74
2021/01/09 01:00:14;;;;;;;1.40;0.73;;;;;;;21.95;43.25;94582.75;5011564;28;20025;-73
2021/01/09 01:02:39;;;;;;;0.82;0.63;;;;;;;21.96;43.15;94595.13;5011670;28;20049;-73
2021/01/09 01:05:05;;;;;;;1.60;0.90;;;;;;;21.93;43.23;94586.00;5011787;28;20418;-74
2021/01/09 01:07:34;;;;;;;1.25;0.80;;;;;;;21.74;43.03;94557.28;5011528;28;20107;-73
2021/01/09 01:10:00;;;;;;;0.90;0.75;;;;;;;21.88;43.22;94582.59;5010739;28;20018;-74
2021/01/09 01:12:26;;;;;;;0.75;0.60;;;;;;;21.92;43.15;94593.94;5011865;28;20072;-74
2021/01/09 01:14:51;;;;;;;1.10;0.60;;;;;;;21.90;43.20;94596.41;5011531;28;20025;-73
2021/01/09 01:17:17;;;;;;;1.10;0.80;;;;;;;21.89;43.30;94589.50;5011723;28;20030;-74
2021/01/09 01:19:42;;;;;;;1.30;0.70;;;;;;;21.81;43.26;94572.25;5011510;28;20038;-73
2021/01/09 01:22:08;;;;;;;1.00;0.50;;;;;;;21.84;43.24;94577.44;5011253;28;20083;-73
2021/01/09 01:24:33;;;;;;;1.58;0.80;;;;;;;21.82;43.38;94574.47;5011714;28;20041;-73
2021/01/09 01:26:59;;;;;;;0.68;0.57;;;;;;;21.78;43.32;94578.72;5011576;28;20495;-73
2021/01/09 01:29:24;;;;;;;0.73;0.55;;;;;;;21.82;43.26;94574.47;5011488;28;20029;-74
2021/01/09 01:31:50;;;;;;;1.42;0.88;;;;;;;21.83;43.32;94580.66;5010994;28;20041;-73
2021/01/09 01:34:16;;;;;;;1.10;0.60;;;;;;;21.78;43.23;94567.84;5011288;28;20026;-73
2021/01/09 01:36:47;;;;;;;0.98;0.70;;;;;;;21.73;43.34;94576.81;5011550;28;20030;-74
2021/01/09 01:39:13;;;;;;;1.10;0.63;;;;;;;21.77;43.18;94579.97;5010785;28;20056;-74
2021/01/09 01:41:38;;;;;;;1.10;0.70;;;;;;;21.77;43.32;94571.84;4994015;28;20061;-74
2021/01/09 01:44:04;;;;;;;1.00;0.70;;;;;;;21.77;43.33;94571.84;5011020;28;20048;-73
2021/01/09 01:46:29;;;;;;;1.35;0.90;;;;;;;21.75;43.24;94574.31;5010936;28;20038;-74
2021/01/09 01:48:55;;;;;;;1.05;0.70;;;;;;;21.75;43.35;94568.88;5010837;28;20041;-74
2021/01/09 01:51:21;;;;;;;1.27;0.90;;;;;;;21.74;43.36;94578.28;5010698;28;20036;-74
2021/01/09 01:53:46;;;;;;;1.10;0.70;;;;;;;21.72;43.46;94586.19;5009726;28;20105;-74
2021/01/09 01:56:12;;;;;;;0.90;0.52;;;;;;;21.72;43.34;94575.31;5010822;28;20042;-74
2021/01/09 01:58:37;;;;;;;0.88;0.60;;;;;;;21.73;43.37;94574.09;5011109;28;20042;-74
2021/01/09 02:01:03;;;;;;;0.98;0.60;;;;;;;21.71;43.30;94571.16;5011298;28;20116;-73
2021/01/09 02:03:28;;;;;;;0.80;0.55;;;;;;;21.69;43.40;94571.66;5010564;28;20041;-73
2021/01/09 02:06:12;;;;;;;0.88;0.50;;;;;;;21.69;43.40;94581.78;5010851;28;20457;-74
2021/01/09 02:08:46;;;;;;;1.08;0.60;;;;;;;21.68;43.58;94591.91;5009817;28;20482;-74
2021/01/09 02:11:53;;;;;;;1.20;0.60;;;;;;;21.66;43.37;94588.97;5009402;28;20037;-74
2021/01/09 02:14:25;;;;;;;1.20;0.50;;;;;;;21.65;43.49;94575.91;5010309;28;20491;-74
2021/01/09 02:16:50;;;;;;;0.80;0.60;;;;;;;21.65;43.51;94586.75;5009518;28;20045;-74
2021/01/09 02:19:15;;;;;;;0.68;0.40;;;;;;;21.64;43.52;94593.44;5009825;28;20109;-74
2021/01/09 02:21:41;;;;;;;0.95;0.55;;;;;;;21.65;43.40;94578.63;5009621;28;20029;-74
2021/01/09 02:24:15;;;;;;;0.90;0.52;;;;;;;21.63;43.39;94583.84;5005694;28;20038;-74
2021/01/09 02:26:40;;;;;;;1.05;0.60;;;;;;;21.65;43.41;94586.75;4991196;28;20679;-74
2021/01/09 02:29:05;;;;;;;0.77;0.50;;;;;;;21.58;43.39;94584.59;4990700;28;20088;-74
2021/01/09 02:31:33;;;;;;;1.25;0.60;;;;;;;21.62;43.40;94591.22;4991087;28;20499;-73
2021/01/09 02:33:58;;;;;;;0.80;0.50;;;;;;;21.40;43.10;94543.75;5006042;28;20033;-74
2021/01/09 02:36:27;;;;;;;0.80;0.52;;;;;;;21.61;43.40;94580.88;5006221;28;20156;-74
2021/01/09 02:38:52;;;;;;;1.42;0.60;;;;;;;21.61;43.48;94581.63;4989337;28;20042;-73
2021/01/09 02:41:17;;;;;;;1.20;0.65;;;;;;;21.59;43.50;94583.38;4989433;28;20041;-73
2021/01/09 02:43:43;;;;;;;0.80;0.52;;;;;;;21.59;43.36;94583.38;5006442;28;20035;-73
2021/01/09 02:46:08;;;;;;;0.90;0.60;;;;;;;21.57;43.29;94594.72;4990986;28;20030;-73
2021/01/09 02:48:34;;;;;;;0.80;0.50;;;;;;;21.58;43.36;94592.75;4990915;28;20018;-73
2021/01/09 02:51:00;;;;;;;1.05;0.50;;;;;;;21.56;43.38;94590.53;4990485;28;20492;-72
2021/01/09 02:53:26;;;;;;;0.65;0.40;;;;;;;21.56;43.43;94589.81;4993557;28;20033;-74
2021/01/09 02:55:51;;;;;;;0.80;0.52;;;;;;;21.55;43.55;94582.88;5010565;28;20025;-73
2021/01/09 02:58:16;;;;;;;0.90;0.57;;;;;;;21.53;43.32;94591.56;5006796;28;20030;-74
2021/01/09 03:00:42;;;;;;;0.60;0.30;;;;;;;21.31;43.55;94558.38;5010313;28;20045;-74
2021/01/09 03:03:07;;;;;;;0.98;0.50;;;;;;;21.54;43.49;94597.75;5011358;28;20046;-73
2021/01/09 03:05:33;;;;;;;0.88;0.55;;;;;;;21.52;43.47;94589.34;5014049;28;20033;-73
2021/01/09 03:07:58;;;;;;;0.80;0.50;;;;;;;21.52;43.50;94594.78;5012923;28;20018;-74
2021/01/09 03:10:24;;;;;;;1.48;0.40;;;;;;;21.52;43.45;94590.09;5014199;28;20030;-74
2021/01/09 03:12:49;;;;;;;0.82;0.60;;;;;;;21.50;43.48;94589.84;5009483;28;20030;-73
2021/01/09 03:15:15;;;;;;;0.70;0.40;;;;;;;21.49;43.56;94590.34;4994183;28;20025;-73
2021/01/09 03:17:40;;;;;;;0.75;0.40;;;;;;;21.45;43.55;94584.44;4994163;28;20041;-73
2021/01/09 03:20:06;;;;;;;0.70;0.40;;;;;;;21.49;43.46;94590.34;4994448;28;20030;-74
2021/01/09 03:22:32;;;;;;;0.70;0.40;;;;;;;21.49;43.46;94596.53;4994154;28;20543;-73
2021/01/09 03:24:57;;;;;;;1.00;0.40;;;;;;;21.48;43.55;94599.75;4994338;28;20080;-74
2021/01/09 03:27:23;;;;;;;0.60;0.40;;;;;;;21.46;43.47;94596.78;4994250;28;20030;-73
2021/01/09 03:29:48;;;;;;;1.10;0.43;;;;;;;21.45;43.54;94582.50;4993223;28;20041;-73
2021/01/09 03:32:14;;;;;;;0.80;0.50;;;;;;;21.46;43.54;94591.38;4994636;28;20081;-73
2021/01/09 03:34:39;;;;;;;0.50;0.30;;;;;;;21.44;43.47;94594.56;4996256;28;20388;-72
2021/01/09 03:37:05;;;;;;;0.63;0.40;;;;;;;21.45;43.50;94595.31;4995993;28;20018;-73
2021/01/09 03:39:31;;;;;;;0.80;0.57;;;;;;;21.44;43.47;94604.69;4996893;28;20023;-73
2021/01/09 03:41:56;;;;;;;0.50;0.40;;;;;;;21.44;43.60;94604.69;4995019;28;20507;-73
2021/01/09 03:44:22;;;;;;;0.82;0.50;;;;;;;21.43;43.43;94608.66;5004317;28;20030;-72
2021/01/09 03:46:47;;;;;;;0.65;0.40;;;;;;;21.44;43.49;94615.56;5015049;28;20411;-73
2021/01/09 03:49:13;;;;;;;0.85;0.40;;;;;;;21.44;43.52;94612.84;5013805;28;20029;-73
2021/01/09 03:51:38;;;;;;;0.90;0.45;;;;;;;21.48;43.37;94611.34;5014255;28;20036;-73
2021/01/09 03:54:04;;;;;;;0.60;0.47;;;;;;;21.57;43.17;94619.19;5013053;28;20030;-73
2021/01/09 03:56:29;;;;;;;0.60;0.38;;;;;;;21.42;42.88;94585.47;5012307;28;20049;-75
2021/01/09 03:58:55;;;;;;;0.80;0.40;;;;;;;21.73;42.94;94615.56;5012171;28;20032;-75
2021/01/09 04:01:20;;;;;;;0.75;0.45;;;;;;;21.79;42.99;94613.53;5002412;28;20031;-81
2021/01/09 04:03:46;;;;;;;1.25;0.70;;;;;;;21.89;42.49;94624.84;5004356;28;20053;-82
2021/01/09 04:06:11;;;;;;;0.82;0.50;;;;;;;21.97;42.74;94640.81;5004630;28;20030;-83
2021/01/09 04:08:36;;;;;;;0.60;0.50;;;;;;;22.02;42.65;94642.00;5005233;28;20026;-76
2021/01/09 04:11:02;;;;;;;0.80;0.50;;;;;;;22.07;42.51;94633.78;5004072;28;20149;-76
2021/01/09 04:13:27;;;;;;;0.88;0.43;;;;;;;22.12;42.44;94643.88;5004930;28;20052;-83
2021/01/09 04:15:53;;;;;;;0.60;0.40;;;;;;;22.17;42.31;94636.94;5007878;28;20022;-83
2021/01/09 04:18:19;;;;;;;0.90;0.60;;;;;;;22.20;42.27;94647.50;5011034;28;20029;-84
2021/01/09 04:20:44;;;;;;;0.45;0.32;;;;;;;22.22;42.65;94650.47;5003808;28;20022;-80
2021/01/09 04:23:10;;;;;;;0.70;0.40;;;;;;;22.23;42.27;94645.78;5003094;28;20018;-82
2021/01/09 04:25:35;;;;;;;0.60;0.40;;;;;;;22.22;42.39;94645.03;5003278;28;20018;-82
2021/01/09 04:28:01;;;;;;;0.65;0.40;;;;;;;22.26;42.20;94652.94;5005341;28;20087;-80
2021/01/09 04:30:26;;;;;;;0.70;0.40;;;;;;;22.27;42.20;94646.97;4998946;28;20410;-79
2021/01/09 04:32:52;;;;;;;0.73;0.40;;;;;;;22.29;42.07;94649.91;5002868;28;20030;-82
2021/01/09 04:35:17;;;;;;;0.40;0.30;;;;;;;22.33;41.92;94660.50;5003703;28;20407;-84
2021/01/09 04:37:43;;;;;;;0.90;0.47;;;;;;;22.36;41.83;94660.25;5007545;28;20045;-79
2021/01/09 04:40:08;;;;;;;0.40;0.30;;;;;;;22.40;41.82;94649.06;5009628;28;20026;-76
2021/01/09 04:42:34;;;;;;;0.90;0.35;;;;;;;22.42;41.95;94652.75;5007710;28;20566;-80
2021/01/09 04:45:00;;;;;;;0.70;0.40;;;;;;;22.47;41.53;94660.13;5008104;28;20038;-79
2021/01/09 04:47:26;;;;;;;0.57;0.32;;;;;;;22.45;41.84;94651.72;5008399;28;20100;-80
2021/01/09 04:49:52;;;;;;;0.43;0.40;;;;;;;22.47;41.74;94671.72;5008531;28;20028;-82
2021/01/09 04:52:17;;;;;;;0.80;0.40;;;;;;;22.50;41.57;94672.69;5006858;28;20018;-82
2021/01/09 04:54:43;;;;;;;0.90;0.50;;;;;;;22.46;41.56;94672.25;5008469;28;20403;-76
2021/01/09 04:57:08;;;;;;;0.68;0.43;;;;;;;22.54;41.52;94675.84;5005322;28;20515;-79
2021/01/09 04:59:34;;;;;;;0.65;0.40;;;;;;;22.56;41.54;94679.53;4994168;28;20033;-78
2021/01/09 05:02:00;;;;;;;0.30;0.30;;;;;;;22.60;41.46;94673.81;5006598;28;20046;-76
2021/01/09 05:04:25;;;;;;;0.82;0.45;;;;;;;22.62;41.57;94679.50;5006816;28;20084;-77
2021/01/09 05:06:51;;;;;;;0.60;0.40;;;;;;;22.61;41.47;94686.19;5010936;28;20025;-78
2021/01/09 05:09:16;;;;;;;0.30;0.25;;;;;;;22.65;41.09;94681.19;5011212;28;20026;-77
2021/01/09 05:11:42;;;;;;;0.47;0.30;;;;;;;22.62;41.31;94674.03;4976452;28;20840;-79
2021/01/09 05:14:08;;;;;;;0.60;0.38;;;;;;;22.70;41.18;94691.28;5011422;28;20022;-79
2021/01/09 05:16:34;;;;;;;0.98;0.30;;;;;;;22.72;41.13;94697.69;5006462;28;20032;-76
2021/01/09 05:18:59;;;;;;;0.75;0.40;;;;;;;22.75;41.20;94695.91;5005685;28;20072;-76
2021/01/09 05:21:27;;;;;;;0.50;0.35;;;;;;;22.77;41.09;94693.44;5007426;28;20109;-76
2021/01/09 05:23:59;;;;;;;0.47;0.30;;;;;;;22.80;40.82;94703.28;5009756;28;20029;-76
2021/01/09 05:26:25;;;;;;;0.55;0.30;;;;;;;22.54;40.90;94668.44;5005547;28;20018;-76
2021/01/09 05:28:55;;;;;;;0.60;0.30;;;;;;;22.82;40.79;94717.13;5001315;28;20037;-80
2021/01/09 05:31:21;;;;;;;1.77;0.30;;;;;;;22.76;41.04;94708.28;4994397;28;20026;-79
2021/01/09 05:33:47;;;;;;;2.15;0.40;;;;;;;22.71;40.87;94711.81;5004351;28;20062;-79
2021/01/09 05:36:13;;;;;;;0.40;0.38;;;;;;;22.78;41.26;94716.66;5009323;28;20491;-75
2021/01/09 05:38:40;;;;;;;0.52;0.40;;;;;;;22.77;41.02;94726.09;5007965;28;20021;-78
2021/01/09 05:41:06;;;;;;;0.63;0.30;;;;;;;22.75;41.11;94723.13;5011098;28;20030;-75
2021/01/09 05:43:32;;;;;;;0.70;0.40;;;;;;;22.78;41.00;94727.53;4969053;28;20046;-76
2021/01/09 05:45:59;;;;;;;1.17;0.38;;;;;;;22.82;41.38;94738.91;5007678;28;20470;-73
2021/01/09 05:48:25;;;;;;;0.60;0.43;;;;;;;22.86;41.23;94733.91;4998826;28;20105;-76
2021/01/09 05:50:52;;;;;;;0.68;0.32;;;;;;;22.65;40.99;94697.53;5003360;28;20025;-80
2021/01/09 05:53:45;;;;;;;0.75;0.40;;;;;;;22.97;41.18;94743.47;5006620;28;20022;-75
2021/01/09 05:56:12;;;;;;;0.40;0.30;;;;;;;23.05;41.04;94746.34;4998240;28;20136;-76
2021/01/09 05:58:37;;;;;;;0.35;0.20;;;;;;;23.13;40.79;94753.41;5005542;28;20020;-82
2021/01/09 06:01:07;;;;;;;0.50;0.30;;;;;;;23.20;40.86;94752.84;5012958;28;20018;-81
2021/01/09 06:03:52;;;;;;;0.60;0.40;;;;;;;23.29;40.37;94755.19;5008111;28;20495;-78
2021/01/09 06:06:25;;;;;;;0.63;0.40;;;;;;;23.17;40.80;94715.72;5002045;28;20034;-83
2021/01/09 06:08:54;;;;;;;0.43;0.25;;;;;;;23.37;40.60;94728.81;5043398;28;20032;-77
2021/01/09 06:11:26;;;;;;;1.63;0.40;;;;;;;23.35;40.16;94717.72;5035612;28;20006;-80
2021/01/09 06:13:52;;;;;;;0.55;0.30;;;;;;;23.47;39.92;94724.50;5013323;28;20332;-84
2021/01/09 06:16:17;;;;;;;0.40;0.30;;;;;;;23.61;40.15;94726.00;5026733;28;20057;-83
2021/01/09 06:18:43;;;;;;;0.55;0.40;;;;;;;23.58;39.67;94727.06;5002941;28;20046;-84
2021/01/09 06:21:08;;;;;;;0.60;0.40;;;;;;;23.87;39.69;94754.91;5020041;28;20022;-84
2021/01/09 06:23:34;;;;;;;0.50;0.32;;;;;;;23.86;39.71;94741.06;5004698;28;20781;-77
2021/01/09 06:26:01;;;;;;;0.52;0.30;;;;;;;24.03;39.57;94767.53;5014027;28;20503;-80
2021/01/09 06:28:27;;;;;;;0.55;0.30;;;;;;;23.90;39.09;94737.50;5012708;28;20033;-79
2021/01/09 06:30:54;;;;;;;0.80;0.40;;;;;;;24.22;39.01;94770.97;5013967;28;20029;-76
2021/01/09 06:33:19;;;;;;;0.70;0.35;;;;;;;24.28;38.71;94777.06;5010605;28;20418;-85
2021/01/09 06:35:45;;;;;;;0.60;0.30;;;;;;;24.14;38.60;94761.94;4992795;28;20023;-84
2021/01/09 06:38:10;;;;;;;0.73;0.40;;;;;;;24.26;39.02;94795.97;4999969;28;20075;-86
2021/01/09 06:40:36;;;;;;;0.40;0.30;;;;;;;24.18;38.52;94800.53;5010810;28;20046;-85
2021/01/09 06:43:01;;;;;;;0.98;0.40;;;;;;;24.16;38.46;94811.25;5011460;28;20483;-78
2021/01/09 06:45:28;;;;;;;0.60;0.38;;;;;;;24.29;38.50;94822.22;4967252;28;20054;-76
2021/01/09 06:48:00;;;;;;;0.40;0.30;;;;;;;24.39;38.11;94823.31;4986299;28;20495;-81
2021/01/09 06:50:26;;;;;;;0.82;0.40;;;;;;;24.58;38.08;94826.75;5016062;28;20033;-82
2021/01/09 06:52:54;;;;;;;0.95;0.40;;;;;;;24.69;37.88;94837.47;5010912;28;20030;-76
2021/01/09 06:55:38;;;;;;;0.40;0.30;;;;;;;24.79;37.73;94841.28;5015179;28;20049;-72
2021/01/09 06:58:04;;;;;;;0.95;0.32;;;;;;;24.63;37.69;94817.72;5001874;28;20041;-75
2021/01/09 07:00:30;;;;;;;5.03;0.40;;;;;;;24.65;37.77;94810.47;5023437;28;20025;-79
2021/01/09 07:03:14;;;;;;;9.25;0.60;;;;;;;24.94;38.13;94844.97;4971407;28;20511;-75
2021/01/09 07:05:49;;;;;;;9.00;0.65;;;;;;;24.97;37.77;94852.13;4997925;28;20536;-76
2021/01/09 07:08:28;;;;;;;5.97;0.50;;;;;;;24.82;37.86;94834.78;5036867;28;20490;-78
2021/01/09 07:10:58;;;;;;;7.97;1.00;;;;;;;25.05;37.60;94853.75;5018114;28;20111;-78
2021/01/09 07:13:24;;;;;;;7.30;1.52;;;;;;;25.13;37.34;94860.06;5028879;28;20033;-75
2021/01/09 07:16:11;;;;;;;6.93;0.60;;;;;;;24.88;37.34;94827.94;5033277;28;20010;-73
2021/01/09 07:18:47;;;;;;;5.95;0.80;;;;;;;25.17;37.42;94876.91;5030849;28;20026;-80
2021/01/09 07:21:13;;;;;;;9.15;0.98;;;;;;;25.15;37.50;94873.94;5034009;28;20845;-78
2021/01/09 07:23:39;;;;;;;6.57;1.13;;;;;;;25.14;37.46;94883.41;5034665;28;20096;-77
2021/01/09 07:26:04;;;;;;;5.72;0.70;;;;;;;25.09;37.36;94870.56;5033250;28;20029;-80
2021/01/09 07:28:34;;;;;;;10.13;0.70;;;;;;;25.28;37.05;94887.63;5034083;28;20083;-78
2021/01/09 07:31:07;;;;;;;8.65;0.65;;;;;;;25.35;37.47;94903.38;5050674;28;20038;-78
2021/01/09 07:33:33;;;;;;;9.55;0.60;;;;;;;25.36;36.81;94899.41;5033565;28;20029;-77
2021/01/09 07:35:59;;;;;;;7.53;0.75;;;;;;;25.34;36.83;94915.59;5032948;28;20025;-78
2021/01/09 07:38:24;;;;;;;6.85;0.70;;;;;;;25.39;37.21;94920.22;5034641;28;20031;-74
2021/01/09 07:41:02;;;;;;;6.22;0.98;;;;;;;25.15;34.74;94928.59;5034615;28;20476;-77
2021/01/09 07:43:47;;;;;;;7.15;0.70;;;;;;;25.30;36.53;94923.38;5036344;28;20040;-77
2021/01/09 07:46:29;;;;;;;7.10;0.77;;;;;;;25.41;36.67;94928.63;5032581;28;20047;-73
2021/01/09 07:48:56;;;;;;;4.90;0.50;;;;;;;25.49;37.00;94934.97;5031284;28;20036;-74
2021/01/09 07:51:47;;;;;;;5.70;0.80;;;;;;;25.51;36.82;94927.69;5062343;28;20418;-73
2021/01/09 07:54:27;;;;;;;4.40;0.68;;;;;;;25.50;36.77;94920.00;5033614;28;20067;-75
2021/01/09 07:56:52;;;;;;;;;;;;;;;25.56;36.40;94924.13;5034775;28;20040;-76
2021/01/09 07:59:18;;;;;;;5.07;0.95;;;;;;;25.60;36.55;94923.81;5065976;28;19909;-75
2021/01/09 08:01:44;;;;;;;4.15;0.90;;;;;;;25.38;36.74;94896.88;5014552;28;20033;-73
2021/01/09 08:04:10;;;;;;;6.55;0.85;;;;;;;25.46;36.58;94886.78;5035198;28;20388;-75
2021/01/09 08:06:36;;;;;;;2.45;0.50;;;;;;;25.65;36.53;94933.94;5033991;28;20021;-79
2021/01/09 08:09:03;;;;;;;3.17;0.40;;;;;;;25.72;36.23;94936.03;5033474;28;20032;-76
2021/01/09 08:11:28;;;;;;;2.88;0.63;;;;;;;25.77;36.28;94933.22;5035966;28;20028;-80
2021/01/09 08:14:02;;;;;;;3.35;0.65;;;;;;;25.78;36.53;94936.66;5033152;28;20017;-78
2021/01/09 08:16:28;;;;;;;2.38;0.60;;;;;;;25.76;36.37;94929.00;5034769;28;20108;-81
2021/01/09 08:18:53;;;;;;;4.70;0.90;;;;;;;25.50;36.49;94887.19;5034992;28;20104;-81
2021/01/09 08:21:22;;;;;;;2.25;0.85;;;;;;;25.84;36.50;94927.09;5033916;28;20142;-81
2021/01/09 08:23:54;;;;;;;2.67;0.70;;;;;;;25.85;36.83;94928.56;5033071;28;20026;-80
2021/01/09 08:26:21;;;;;;;2.42;0.60;;;;;;;25.85;36.84;94923.09;5019337;28;20021;-74
2021/01/09 08:28:48;;;;;;;1.33;0.68;;;;;;;25.81;37.29;94939.84;5029849;28;20865;-76
2021/01/09 08:31:13;;;;;;;2.05;0.52;;;;;;;25.89;37.90;94935.19;5032376;28;20056;-80
2021/01/09 08:33:39;;;;;;;2.67;0.68;;;;;;;25.85;38.61;94939.50;5025007;28;20057;-75
2021/01/09 08:36:04;;;;;;;2.05;0.73;;;;;;;25.79;38.94;94945.09;5058022;28;20029;-77
2021/01/09 08:38:30;;;;;;;2.92;1.25;;;;;;;25.72;38.91;94941.50;5032018;28;20075;-75
2021/01/09 08:40:58;;;;;;;4.05;0.90;;;;;;;25.68;38.23;94946.56;5032434;28;20087;-79
2021/01/09 08:43:24;;;;;;;1.40;0.70;;;;;;;25.84;38.30;94955.19;5021701;28;20055;-81
2021/01/09 08:45:51;;;;;;;0.98;0.60;;;;;;;25.80;38.26;94932.88;5034347;28;20490;-78
2021/01/09 08:48:23;;;;;;;1.38;0.70;;;;;;;25.89;38.37;94948.88;5035487;28;20013;-82
2021/01/09 08:51:07;;;;;;;2.75;0.93;;;;;;;25.90;38.34;94942.16;5039212;28;20021;-84
2021/01/09 08:54:00;;;;;;;2.55;0.80;;;;;;;26.01;38.42;94950.13;5035655;28;20029;-79
2021/01/09 08:56:29;;;;;;;2.92;0.60;;;;;;;25.95;38.70;94938.56;5035066;28;20120;-74
2021/01/09 08:58:55;;;;;;;2.30;0.80;;;;;;;26.11;38.50;94937.47;5028658;28;20032;-70
2021/01/09 09:01:31;;;;;;;1.80;0.70;;;;;;;26.17;38.23;94943.56;5047930;28;20041;-71
2021/01/09 09:03:58;;;;;;;2.90;0.70;;;;;;;26.19;38.47;94930.09;5031598;28;20050;-71
2021/01/09 09:06:24;;;;;;;1.15;0.60;;;;;;;26.30;37.87;94935.38;5030097;28;20021;-70
2021/01/09 09:08:49;;;;;;;2.08;0.80;;;;;;;26.30;37.72;94919.66;5030177;28;20018;-71
2021/01/09 09:11:15;;;;;;;1.17;0.80;;;;;;;26.28;37.63;94921.47;5011235;28;20022;-71
2021/01/09 09:13:41;;;;;;;1.52;0.70;;;;;;;26.36;37.63;94925.03;5024841;28;20018;-71
2021/01/09 09:16:19;;;;;;;1.75;0.70;;;;;;;26.39;37.67;94918.50;5031014;28;20116;-72
2021/01/09 09:18:45;;;;;;;1.98;0.60;;;;;;;26.42;37.52;94926.38;5031009;28;20058;-74
2021/01/09 09:21:10;;;;;;;1.17;0.60;;;;;;;26.45;37.18;94930.06;5059061;28;20088;-75
2021/01/09 09:23:36;;;;;;;1.55;0.80;;;;;;;26.39;37.11;94904.81;5030152;28;20018;-75
2021/01/09 09:26:11;;;;;;;0.90;0.60;;;;;;;26.47;37.11;94911.84;5031822;28;20022;-73
2021/01/09 09:28:53;;;;;;;1.77;0.63;;;;;;;26.50;36.94;94915.50;5030942;28;20493;-70
2021/01/09 09:31:25;;;;;;;1.85;0.75;;;;;;;26.50;36.86;94926.44;5030856;28;20022;-82
2021/01/09 09:34:17;;;;;;;2.33;0.80;;;;;;;26.55;36.95;94920.13;5032965;28;20013;-90
2021/01/09 09:36:49;;;;;;;1.25;0.80;;;;;;;26.50;37.25;94924.47;5020811;28;20128;-85
2021/01/09 09:39:21;;;;;;;1.83;0.90;;;;;;;26.43;37.51;94910.69;5033245;28;20021;-79
2021/01/09 09:41:51;;;;;;;2.00;0.80;;;;;;;26.43;37.63;94916.16;5031563;28;20029;-79
2021/01/09 09:44:16;;;;;;;1.70;0.73;;;;;;;26.46;38.10;94920.59;5032858;28;20025;-79
2021/01/09 09:46:42;;;;;;;2.08;0.50;;;;;;;26.30;38.12;94916.19;5032516;28;20048;-80
2021/01/09 09:49:08;;;;;;;1.80;0.80;;;;;;;26.41;38.84;94918.69;5033495;28;20032;-82
2021/01/09 09:51:36;;;;;;;1.90;0.70;;;;;;;26.22;38.72;94884.50;5033094;28;20116;-84
2021/01/09 09:54:02;;;;;;;2.20;1.40;;;;;;;26.41;38.95;94910.47;5033608;28;20032;-83
2021/01/09 09:56:37;;;;;;;1.67;0.90;;;;;;;26.31;39.14;94904.00;5033117;28;20021;-86
2021/01/09 09:59:04;;;;;;;1.60;0.90;;;;;;;26.30;39.08;94905.25;5027922;28;20140;-83
2021/01/09 10:01:30;;;;;;;1.98;0.95;;;;;;;26.28;39.52;94899.56;5028257;28;20021;-83
2021/01/09 10:04:02;;;;;;;2.20;1.00;;;;;;;26.14;39.64;94880.94;5032044;28;20026;-80
2021/01/09 10:06:35;;;;;;;2.30;1.05;;;;;;;25.97;39.43;94847.72;5011789;28;20037;-80
2021/01/09 10:09:19;;;;;;;2.40;0.95;;;;;;;26.11;39.68;94869.03;5028153;28;20114;-92
2021/01/09 10:11:45;;;;;;;2.00;0.90;;;;;;;26.27;39.45;94890.59;4971203;28;20456;-84
2021/01/09 10:14:11;;;;;;;1.48;1.10;;;;;;;26.19;39.54;94864.41;5032592;28;20428;-76
2021/01/09 10:16:36;;;;;;;1.90;1.00;;;;;;;26.32;39.84;94889.00;5032477;28;20018;-83
2021/01/09 10:19:03;;;;;;;1.88;1.00;;;;;;;26.38;39.64;94897.84;5030581;28;20021;-71
2021/01/09 10:21:28;;;;;;;3.40;1.00;;;;;;;26.39;40.11;94893.84;5031802;28;20108;-81
2021/01/09 10:23:56;;;;;;;2.35;1.20;;;;;;;26.36;40.24;94890.16;5031839;28;20477;-81
2021/01/09 10:26:25;;;;;;;1.83;1.00;;;;;;;26.26;40.03;94891.09;5033278;28;20029;-81
2021/01/09 10:28:50;;;;;;;2.50;0.97;;;;;;;26.35;40.12;94904.38;5031704;28;20574;-85
2021/01/09 10:31:16;;;;;;;2.65;1.17;;;;;;;26.15;39.77;94863.97;5011031;28;20034;-83
2021/01/09 10:33:41;;;;;;;2.70;1.20;;;;;;;26.16;39.89;94868.19;5023074;28;20494;-83
2021/01/09 10:36:07;;;;;;;3.95;1.48;;;;;;;26.30;39.88;94888.81;5030636;28;20040;-77
2021/01/09 10:38:32;;;;;;;2.33;1.40;;;;;;;26.05;40.40;94854.75;5031991;28;20032;-74
2021/01/09 10:40:58;;;;;;;3.08;1.20;;;;;;;26.36;40.16;94889.44;5030050;28;20409;-79
2021/01/09 10:43:23;;;;;;;3.45;1.15;;;;;;;26.34;40.00;94887.22;5032002;28;20017;-79
2021/01/09 10:45:50;;;;;;;1.98;1.13;;;;;;;26.27;40.17;94887.13;5031765;28;20025;-78
2021/01/09 10:48:16;;;;;;;2.10;1.00;;;;;;;26.27;40.05;94881.63;5031934;28;20120;-76
2021/01/09 10:50:41;;;;;;;2.00;1.20;;;;;;;26.32;40.10;94889.78;5031520;28;20029;-81
2021/01/09 10:53:07;;;;;;;3.63;1.40;;;;;;;26.26;40.01;94880.16;5032117;28;20445;-85
2021/01/09 10:55:34;;;;;;;3.30;1.33;;;;;;;26.30;40.04;94886.09;5031264;28;20512;-80
2021/01/09 10:57:59;;;;;;;5.10;1.60;;;;;;;26.30;40.00;94891.56;5032485;28;20021;-82
2021/01/09 11:00:26;;;;;;;3.20;1.65;;;;;;;26.30;39.81;94897.75;5030941;28;20067;-82
2021/01/09 11:02:51;;;;;;;4.22;1.40;;;;;;;26.22;40.31;94879.75;5032116;28;20099;-86
2021/01/09 11:05:17;;;;;;;2.17;1.30;;;;;;;26.25;39.95;94889.66;5015114;28;20018;-85
2021/01/09 11:07:42;;;;;;;2.70;1.25;;;;;;;25.71;40.05;94833.34;5032009;28;20511;-84
2021/01/09 11:10:08;;;;;;;3.00;1.40;;;;;;;26.21;39.97;94899.47;5011392;28;20037;-84
2021/01/09 11:12:34;;;;;;;2.85;1.30;;;;;;;26.05;39.98;94887.59;5030332;28;20045;-74
2021/01/09 11:14:59;;;;;;;3.97;1.55;;;;;;;26.22;40.08;94901.66;5011533;28;20025;-76
2021/01/09 11:17:25;;;;;;;3.95;1.63;;;;;;;26.26;40.25;94910.28;5042623;28;20036;-80
2021/01/09 11:19:50;;;;;;;2.42;1.38;;;;;;;26.27;39.99;94903.53;5032200;28;20434;-80
2021/01/09 11:22:16;;;;;;;3.97;1.65;;;;;;;26.28;39.90;94899.56;5011521;28;20124;-85
2021/01/09 11:24:42;;;;;;;3.25;1.30;;;;;;;26.11;39.88;94874.50;5033891;28;20033;-78
2021/01/09 11:27:07;;;;;;;3.45;1.70;;;;;;;26.30;39.95;94897.03;5035094;28;20032;-79
2021/01/09 11:29:33;;;;;;;3.05;1.67;;;;;;;26.21;39.43;94900.19;5035035;28;20027;-78
2021/01/09 11:32:00;;;;;;;3.30;1.60;;;;;;;25.92;39.94;94846.56;5034618;28;20593;-77
2021/01/09 11:34:26;;;;;;;2.60;1.48;;;;;;;26.27;39.78;94887.13;5033434;28;20032;-78
2021/01/09 11:36:51;;;;;;;2.20;1.50;;;;;;;26.25;40.01;94878.69;5033387;28;20496;-78